Time;durP1;ratioP1;P1;durP2;ratioP2;P2;SDS_P1;SDS_P2;PMS_P1;PMS_P2;Temp;Humidity;BMP_temperature;BMP_pressure;BME280_temperature;BME280_humidity;BME280_pressure;Samples;Min_cycle;Max_cycle;Signal;HPM_P1;HPM_P2
2023/01/28 00:01:51;;;;;;;;;;;4.10;99.90;;;;;;5067041;28;19933;-84
2023/01/28 00:04:19;;;;;;;;;;;4.10;99.90;;;;;;5061824;28;19932;-84
2023/01/28 00:06:46;;;;;;;;;;;4.10;99.90;;;;;;5048453;28;19925;-84
2023/01/28 00:09:12;;;;;;;;;;;4.00;99.90;;;;;;5054270;28;19960;-83
2023/01/28 00:11:39;;;;;;;;;;;4.00;99.90;;;;;;5043174;28;19925;-84
2023/01/28 00:14:07;;;;;;;;;;;3.90;99.90;;;;;;5060249;28;19936;-83
2023/01/28 00:16:33;;;;;;;;;;;3.90;99.90;;;;;;5063623;28;19928;-84
2023/01/28 00:19:00;;;;;;;;;;;3.90;99.90;;;;;;5043185;28;19928;-84
2023/01/28 00:21:28;;;;;;;;;;;3.90;99.90;;;;;;5041077;28;19929;-83
2023/01/28 00:23:55;;;;;;;;;;;3.90;99.90;;;;;;5063219;28;19933;-83
2023/01/28 00:26:23;;;;;;;;;;;3.90;99.90;;;;;;5058543;28;19987;-84
2023/01/28 00:28:50;;;;;;;;;;;3.80;99.90;;;;;;5042594;28;19924;-84
2023/01/28 00:31:18;;;;;;;;;;;3.80;99.90;;;;;;5043682;28;19928;-84
2023/01/28 00:33:46;;;;;;;;;;;3.80;99.90;;;;;;5038156;28;19929;-84
2023/01/28 00:36:13;;;;;;;;;;;3.80;99.90;;;;;;5050589;28;19998;-83
2023/01/28 00:38:42;;;;;;;;;;;3.80;99.90;;;;;;5069233;28;19974;-83
2023/01/28 00:41:09;;;;;;;;;;;3.80;99.90;;;;;;5068014;28;19982;-84
2023/01/28 00:43:36;;;;;;;;;;;3.60;99.90;;;;;;5059223;28;20012;-83
2023/01/28 00:46:02;;;;;;;;;;;3.80;99.90;;;;;;5063922;28;19989;-82
2023/01/28 00:48:29;;;;;;;;;;;3.80;99.90;;;;;;5039775;28;19970;-81
2023/01/28 00:50:56;;;;;;;;;;;3.70;99.90;;;;;;5041538;28;20489;-82
2023/01/28 00:53:23;;;;;;;;;;;3.60;99.90;;;;;;5042558;28;19932;-82
2023/01/28 00:55:51;;;;;;;;;;;4.10;99.90;;;;;;5068230;28;19940;-82
2023/01/28 00:58:18;;;;;;;;;;;3.60;99.90;;;;;;5059534;28;20344;-83
2023/01/28 01:00:44;;;;;;;;;;;3.60;99.90;;;;;;5062522;28;19936;-82
2023/01/28 01:03:11;;;;;;;;;;;3.50;99.90;;;;;;5047316;28;19929;-82
2023/01/28 01:05:38;;;;;;;;;;;3.50;99.90;;;;;;5054263;28;19935;-82
2023/01/28 01:08:07;;;;;;;;;;;3.50;99.90;;;;;;5047507;28;20019;-83
2023/01/28 01:10:34;;;;;;;;;;;3.50;99.90;;;;;;5067819;28;19925;-83
2023/01/28 01:13:02;;;;;;;;;;;3.50;99.90;;;;;;5071251;28;19982;-83
2023/01/28 01:15:29;;;;;;;;;;;3.60;99.90;;;;;;5045374;28;20420;-83
2023/01/28 01:17:56;;;;;;;;;;;3.60;99.90;;;;;;5049208;28;19931;-83
2023/01/28 01:20:24;;;;;;;;;;;3.60;99.90;;;;;;5067594;28;20023;-83
2023/01/28 01:22:51;;;;;;;;;;;3.60;99.90;;;;;;5059701;28;19925;-83
2023/01/28 01:25:18;;;;;;;;;;;3.60;99.90;;;;;;5053105;28;19970;-82
2023/01/28 01:27:45;;;;;;;;;;;3.60;99.90;;;;;;5076206;28;19979;-83
2023/01/28 01:30:14;;;;;;;;;;;3.60;99.90;;;;;;5063043;28;19925;-83
2023/01/28 01:32:41;;;;;;;;;;;3.60;99.90;;;;;;5062768;28;19970;-83
2023/01/28 01:35:09;;;;;;;;;;;3.60;99.90;;;;;;5078865;28;19940;-82
2023/01/28 01:37:37;;;;;;;;;;;3.60;99.90;;;;;;5048547;28;19928;-84
2023/01/28 01:40:04;;;;;;;;;;;3.60;99.90;;;;;;5058746;28;20098;-83
2023/01/28 01:42:31;;;;;;;;;;;3.60;99.90;;;;;;5056342;28;19933;-84
2023/01/28 01:45:00;;;;;;;;;;;3.60;99.90;;;;;;5067148;28;19935;-83
2023/01/28 01:47:31;;;;;;;;;;;3.50;99.90;;;;;;5067460;28;19925;-83
2023/01/28 01:49:59;;;;;;;;;;;3.50;99.90;;;;;;5068081;28;19928;-83
2023/01/28 01:52:29;;;;;;;;;;;3.50;99.90;;;;;;5048819;28;20019;-83
2023/01/28 01:54:57;;;;;;;;;;;3.50;99.90;;;;;;5048534;28;19935;-83
2023/01/28 01:57:26;;;;;;;;;;;3.50;99.90;;;;;;5069825;28;19935;-83
2023/01/28 01:59:53;;;;;;;;;;;3.50;99.90;;;;;;5047408;28;19928;-83
2023/01/28 02:02:20;;;;;;;;;;;3.50;99.90;;;;;;5071756;28;19935;-83
2023/01/28 02:04:49;;;;;;;;;;;3.50;99.90;;;;;;5067705;28;19940;-82
2023/01/28 02:07:16;;;;;;;;;;;3.50;99.90;;;;;;5069034;28;19957;-84
2023/01/28 02:09:43;;;;;;;;;;;4.40;99.90;;;;;;5071675;28;19929;-83
2023/01/28 02:12:13;;;;;;;;;;;1.90;99.90;;;;;;5078659;28;19972;-84
2023/01/28 02:14:42;;;;;;;;;;;3.40;99.90;;;;;;5053855;28;19924;-83
2023/01/28 02:17:08;;;;;;;;;;;3.30;99.90;;;;;;5084431;28;19925;-84
2023/01/28 02:19:37;;;;;;;;;;;3.30;99.90;;;;;;5073213;28;19925;-85
2023/01/28 02:22:19;;;;;;;;;;;3.20;99.90;;;;;;5075585;28;19923;-84
2023/01/28 02:24:53;;;;;;;;;;;3.10;99.90;;;;;;5067252;28;19912;-83
2023/01/28 02:27:24;;;;;;;;;;;3.10;99.90;;;;;;5068564;28;20058;-83
2023/01/28 02:29:56;;;;;;;;;;;3.10;99.90;;;;;;5053797;28;19929;-84
2023/01/28 02:32:24;;;;;;;;;;;3.10;99.90;;;;;;5053041;28;19928;-83
2023/01/28 02:34:56;;;;;;;;;;;3.00;99.90;;;;;;5043324;28;19924;-83
2023/01/28 02:37:25;;;;;;;;;;;3.00;99.90;;;;;;5067872;28;19929;-83
2023/01/28 02:39:54;;;;;;;;;;;3.10;99.90;;;;;;5050336;28;19924;-83
2023/01/28 02:42:22;;;;;;;;;;;3.10;99.90;;;;;;5041463;28;20015;-83
2023/01/28 02:44:49;;;;;;;;;;;3.10;99.90;;;;;;5051301;28;19932;-83
2023/01/28 02:50:04;;;;;;;;;;;3.10;99.90;;;;;;5047316;28;19928;-83
2023/01/28 02:55:25;;;;;;;;;;;3.10;99.90;;;;;;5044729;28;19925;-82
2023/01/28 02:57:56;;;;;;;;;;;3.00;99.90;;;;;;5056392;28;19924;-83
2023/01/28 03:00:26;;;;;;;;;;;3.10;99.90;;;;;;5045678;28;19929;-83
2023/01/28 03:02:58;;;;;;;;;;;3.00;99.90;;;;;;5044425;28;19936;-83
2023/01/28 03:05:26;;;;;;;;;;;3.00;99.90;;;;;;5062799;28;19936;-83
2023/01/28 03:07:53;;;;;;;;;;;3.20;99.90;;;;;;5042399;28;19939;-83
2023/01/28 03:10:21;;;;;;;;;;;3.00;99.90;;;;;;5044447;28;19928;-84
2023/01/28 03:37:52;;;;;;;;;;;3.00;99.90;;;;;;5070277;28;20023;-83
2023/01/28 03:40:22;;;;;;;;;;;3.10;99.90;;;;;;5048089;28;19924;-83
2023/01/28 03:42:51;;;;;;;;;;;3.10;99.90;;;;;;5051515;28;19940;-83
2023/01/28 03:45:33;;;;;;;;;;;3.60;99.90;;;;;;5063237;28;19932;-84
2023/01/28 03:48:03;;;;;;;;;;;3.10;99.90;;;;;;5049520;28;20232;-83
2023/01/28 03:50:31;;;;;;;;;;;3.00;99.90;;;;;;5046206;28;19955;-83
2023/01/28 03:53:14;;;;;;;;;;;3.00;99.90;;;;;;5052892;28;19935;-83
2023/01/28 03:55:59;;;;;;;;;;;3.00;99.90;;;;;;5052158;28;20062;-84
2023/01/28 03:58:45;;;;;;;;;;;3.10;99.90;;;;;;5045602;28;20564;-84
2023/01/28 04:01:12;;;;;;;;;;;3.10;99.90;;;;;;5042903;28;19928;-84
2023/01/28 04:03:39;;;;;;;;;;;3.10;99.90;;;;;;5061547;28;20010;-84
2023/01/28 04:06:13;;;;;;;;;;;3.10;99.90;;;;;;5050994;28;19959;-82
2023/01/28 04:09:05;;;;;;;;;;;3.10;99.90;;;;;;5056818;28;19928;-83
2023/01/28 04:11:40;;;;;;;;;;;3.20;99.90;;;;;;5046153;28;19935;-83
2023/01/28 04:14:09;;;;;;;;;;;3.20;99.90;;;;;;5051334;28;19940;-82
2023/01/28 04:16:50;;;;;;;;;;;3.20;99.90;;;;;;5050349;28;20298;-82
2023/01/28 04:19:18;;;;;;;;;;;3.10;99.90;;;;;;5035074;28;19936;-82
2023/01/28 04:21:47;;;;;;;;;;;3.10;99.90;;;;;;5051764;28;19924;-82
2023/01/28 04:24:14;;;;;;;;;;;3.00;99.90;;;;;;5058156;28;19936;-80
2023/01/28 04:26:41;;;;;;;;;;;3.00;99.90;;;;;;5055006;28;19925;-82
2023/01/28 04:29:08;;;;;;;;;;;3.00;99.90;;;;;;5055848;28;19951;-82
2023/01/28 04:31:36;;;;;;;;;;;3.00;99.90;;;;;;5044146;28;19928;-82
2023/01/28 04:34:19;;;;;;;;;;;3.00;99.90;;;;;;5080773;28;19924;-82
2023/01/28 04:37:17;;;;;;;;;;;3.00;99.90;;;;;;5047906;28;20024;-82
2023/01/28 04:40:02;;;;;;;;;;;2.90;99.90;;;;;;5064801;28;20373;-82
2023/01/28 04:42:52;;;;;;;;;;;2.90;99.90;;;;;;5048859;28;19929;-82
2023/01/28 04:45:39;;;;;;;;;;;2.90;99.90;;;;;;5050381;28;19925;-81
2023/01/28 04:48:25;;;;;;;;;;;3.00;99.90;;;;;;5050344;28;20053;-82
2023/01/28 04:51:05;;;;;;;;;;;3.00;99.90;;;;;;5049325;28;19928;-82
2023/01/28 04:53:41;;;;;;;;;;;3.10;99.90;;;;;;5051090;28;20386;-81
2023/01/28 04:56:23;;;;;;;;;;;3.10;99.90;;;;;;5048149;28;19924;-81
2023/01/28 04:58:51;;;;;;;;;;;3.10;99.90;;;;;;5052814;28;20000;-83
2023/01/28 05:01:18;;;;;;;;;;;3.20;99.90;;;;;;5048700;28;20458;-81
2023/01/28 05:03:44;;;;;;;;;;;3.10;99.90;;;;;;5071671;28;19932;-82
2023/01/28 05:06:19;;;;;;;;;;;3.20;99.90;;;;;;5045163;28;19934;-82
2023/01/28 05:08:48;;;;;;;;;;;3.20;99.90;;;;;;5046259;28;19929;-82
2023/01/28 05:11:16;;;;;;;;;;;3.20;99.90;;;;;;5048719;28;20386;-80
2023/01/28 05:13:44;;;;;;;;;;;3.10;99.90;;;;;;5053064;28;19936;-82
2023/01/28 05:16:13;;;;;;;;;;;3.20;99.90;;;;;;5054564;28;19935;-82
2023/01/28 05:18:40;;;;;;;;;;;3.20;99.90;;;;;;5044164;28;19932;-81
2023/01/28 05:21:15;;;;;;;;;;;3.20;99.90;;;;;;5048096;28;19940;-81
2023/01/28 05:23:43;;;;;;;;;;;3.20;99.90;;;;;;5047915;28;19964;-81
2023/01/28 05:26:11;;;;;;;;;;;3.20;99.90;;;;;;5046506;28;19924;-81
2023/01/28 05:28:38;;;;;;;;;;;3.20;99.90;;;;;;5044901;28;19929;-80
2023/01/28 05:31:06;;;;;;;;;;;3.10;99.90;;;;;;5067412;28;19932;-82
2023/01/28 05:33:33;;;;;;;;;;;3.10;99.90;;;;;;5048776;28;20403;-82
2023/01/28 05:36:00;;;;;;;;;;;3.10;99.90;;;;;;5054092;28;19924;-82
2023/01/28 05:38:27;;;;;;;;;;;3.00;99.90;;;;;;5052980;28;19928;-82
2023/01/28 05:40:54;;;;;;;;;;;2.90;99.90;;;;;;5049928;28;19958;-81
2023/01/28 05:43:23;;;;;;;;;;;2.90;99.90;;;;;;5056763;28;20015;-81
2023/01/28 05:46:12;;;;;;;;;;;2.90;99.90;;;;;;5058058;28;19947;-82
2023/01/28 05:48:58;;;;;;;;;;;3.00;99.90;;;;;;5066389;28;19935;-81
2023/01/28 05:51:43;;;;;;;;;;;3.10;99.90;;;;;;5067154;28;19937;-82
2023/01/28 05:54:12;;;;;;;;;;;3.40;99.90;;;;;;5035693;28;19932;-81
2023/01/28 05:56:39;;;;;;;;;;;3.10;99.90;;;;;;5067077;28;20395;-82
2023/01/28 05:59:09;;;;;;;;;;;3.00;99.90;;;;;;5044596;28;19924;-81
2023/01/28 06:01:36;;;;;;;;;;;3.00;99.90;;;;;;5050629;28;20053;-82
2023/01/28 06:04:03;;;;;;;;;;;3.00;99.90;;;;;;5048484;28;20469;-83
2023/01/28 06:06:30;;;;;;;;;;;2.90;99.90;;;;;;5050775;28;19932;-83
2023/01/28 06:08:57;;;;;;;;;;;2.90;99.90;;;;;;5064639;28;19959;-82
2023/01/28 06:11:28;;;;;;;;;;;2.80;99.90;;;;;;5049777;28;19928;-81
2023/01/28 06:13:58;;;;;;;;;;;2.80;99.90;;;;;;5053342;28;19928;-81
2023/01/28 06:17:04;;;;;;;;;;;2.80;99.90;;;;;;5043767;28;20449;-82
2023/01/28 06:19:49;;;;;;;;;;;2.70;99.90;;;;;;5050061;28;20063;-81
2023/01/28 06:22:16;;;;;;;;;;;2.70;99.90;;;;;;5049813;28;19925;-81
2023/01/28 06:24:43;;;;;;;;;;;2.70;99.90;;;;;;5054082;28;20612;-82
2023/01/28 06:27:10;;;;;;;;;;;2.80;99.90;;;;;;5067734;28;19967;-82
2023/01/28 06:29:37;;;;;;;;;;;2.80;99.90;;;;;;5058024;28;20028;-82
2023/01/28 06:32:05;;;;;;;;;;;2.90;99.90;;;;;;5060294;28;19936;-81
2023/01/28 06:34:32;;;;;;;;;;;2.90;99.90;;;;;;5051658;28;20014;-82
2023/01/28 06:36:59;;;;;;;;;;;2.90;99.90;;;;;;5050882;28;19925;-82
2023/01/28 06:39:27;;;;;;;;;;;3.40;99.90;;;;;;5052334;28;19928;-83
2023/01/28 06:41:53;;;;;;;;;;;2.90;99.90;;;;;;5055000;28;19928;-82
2023/01/28 06:44:22;;;;;;;;;;;2.90;99.90;;;;;;5057187;28;19982;-81
2023/01/28 06:46:49;;;;;;;;;;;2.80;99.90;;;;;;5063229;28;19940;-82
2023/01/28 06:49:17;;;;;;;;;;;2.90;99.90;;;;;;5056452;28;19933;-82
2023/01/28 06:51:44;;;;;;;;;;;2.90;99.90;;;;;;5038197;28;19928;-83
2023/01/28 06:54:11;;;;;;;;;;;2.90;99.90;;;;;;5053070;28;19928;-83
2023/01/28 06:56:37;;;;;;;;;;;2.90;99.90;;;;;;5066547;28;20019;-80
2023/01/28 06:59:04;;;;;;;;;;;2.90;99.90;;;;;;5064813;28;19932;-83
2023/01/28 07:01:31;;;;;;;;;;;2.80;99.90;;;;;;5040771;28;20390;-82
2023/01/28 07:03:57;;;;;;;;;;;2.80;99.90;;;;;;5060937;28;19928;-80
2023/01/28 07:06:26;;;;;;;;;;;2.80;99.90;;;;;;5050087;28;20003;-81
2023/01/28 07:08:52;;;;;;;;;;;2.70;99.90;;;;;;5048974;28;19929;-82
2023/01/28 07:11:19;;;;;;;;;;;2.70;99.90;;;;;;5064763;28;20287;-82
2023/01/28 07:13:46;;;;;;;;;;;2.70;99.90;;;;;;5043712;28;19928;-84
2023/01/28 07:16:13;;;;;;;;;;;2.70;99.90;;;;;;5043182;28;19929;-83
2023/01/28 07:18:39;;;;;;;;;;;2.60;99.90;;;;;;5061066;28;19932;-84
2023/01/28 07:21:06;;;;;;;;;;;2.60;99.90;;;;;;5047047;28;19934;-81
2023/01/28 07:23:34;;;;;;;;;;;2.60;99.90;;;;;;5070623;28;20339;-83
2023/01/28 07:26:01;;;;;;;;;;;2.60;99.90;;;;;;5053242;28;19935;-83
2023/01/28 07:28:28;;;;;;;;;;;2.60;99.90;;;;;;5047992;28;19929;-81
2023/01/28 07:30:55;;;;;;;;;;;2.70;99.90;;;;;;5069785;28;19942;-82
2023/01/28 07:33:22;;;;;;;;;;;2.70;99.90;;;;;;5042522;28;20422;-84
2023/01/28 07:35:48;;;;;;;;;;;2.70;99.90;;;;;;5072723;28;19929;-81
2023/01/28 07:38:15;;;;;;;;;;;2.80;99.90;;;;;;5075284;28;19928;-80
2023/01/28 07:40:44;;;;;;;;;;;2.80;99.90;;;;;;5074594;28;19928;-82
2023/01/28 07:43:10;;;;;;;;;;;2.80;99.90;;;;;;5057184;28;19935;-82
2023/01/28 07:45:39;;;;;;;;;;;3.10;99.90;;;;;;5058671;28;19936;-82
2023/01/28 07:48:07;;;;;;;;;;;2.70;99.90;;;;;;5050419;28;19935;-82
2023/01/28 07:50:35;;;;;;;;;;;2.70;99.90;;;;;;5067980;28;19921;-81
2023/01/28 07:53:02;;;;;;;;;;;2.90;99.90;;;;;;5085258;28;19944;-79
2023/01/28 07:55:29;;;;;;;;;;;2.70;99.90;;;;;;5064065;28;19929;-79
2023/01/28 07:57:58;;;;;;;;;;;2.70;99.90;;;;;;5086215;28;19912;-79
2023/01/28 08:00:25;;;;;;;;;;;2.70;99.90;;;;;;5081407;28;19931;-83
2023/01/28 08:02:55;;;;;;;;;;;2.70;99.90;;;;;;5048184;28;19928;-82
2023/01/28 08:05:22;;;;;;;;;;;2.50;99.90;;;;;;5051493;28;19936;-82
2023/01/28 08:07:49;;;;;;;;;;;2.70;99.90;;;;;;5063340;28;20027;-83
2023/01/28 08:10:16;;;;;;;;;;;3.50;99.90;;;;;;5073058;28;20043;-81
2023/01/28 08:12:50;;;;;;;;;;;2.80;99.90;;;;;;5071917;28;19928;-83
2023/01/28 08:15:18;;;;;;;;;;;2.90;99.90;;;;;;5076368;28;20241;-83
2023/01/28 08:17:45;;;;;;;;;;;3.00;99.90;;;;;;5047060;28;19968;-81
2023/01/28 08:20:12;;;;;;;;;;;3.00;99.90;;;;;;5069094;28;19929;-81
2023/01/28 08:22:39;;;;;;;;;;;3.10;99.90;;;;;;5057671;28;20397;-82
2023/01/28 08:25:06;;;;;;;;;;;3.20;99.90;;;;;;5047735;28;19928;-79
2023/01/28 08:27:33;;;;;;;;;;;3.30;99.90;;;;;;5050279;28;19948;-81
2023/01/28 08:30:00;;;;;;;;;;;3.30;99.90;;;;;;5046406;28;20291;-83
2023/01/28 08:32:28;;;;;;;;;;;3.40;99.90;;;;;;5048071;28;19933;-82
2023/01/28 08:35:10;;;;;;;;;;;3.40;99.90;;;;;;5055953;28;19925;-83
2023/01/28 08:37:37;;;;;;;;;;;3.20;99.90;;;;;;5058510;28;19925;-82
2023/01/28 08:40:04;;;;;;;;;;;3.50;99.90;;;;;;5042044;28;19932;-83
2023/01/28 08:42:31;;;;;;;;;;;3.50;99.90;;;;;;5036150;28;19981;-83
2023/01/28 08:44:58;;;;;;;;;;;3.40;99.90;;;;;;5041174;28;19936;-83
2023/01/28 08:47:24;;;;;;;;;;;3.40;99.90;;;;;;5033298;28;19933;-81
2023/01/28 08:49:53;;;;;;;;;;;3.40;99.90;;;;;;5051035;28;19936;-84
2023/01/28 08:52:19;;;;;;;;;;;3.40;99.90;;;;;;5052756;28;19932;-84
2023/01/28 08:54:46;;;;;;;;;;;3.30;99.90;;;;;;5050975;28;19929;-83
2023/01/28 08:57:13;;;;;;;;;;;3.40;99.90;;;;;;5038556;28;19933;-83
2023/01/28 08:59:43;;;;;;;;;;;3.30;99.90;;;;;;5053028;28;19928;-81
2023/01/28 09:02:12;;;;;;;;;;;3.30;99.90;;;;;;5048521;28;19929;-81
2023/01/28 09:04:42;;;;;;;;;;;3.20;99.90;;;;;;5037310;28;19940;-83
2023/01/28 09:07:10;;;;;;;;;;;3.20;99.90;;;;;;5052241;28;19933;-81
2023/01/28 09:09:37;;;;;;;;;;;3.10;99.90;;;;;;5053181;28;19964;-83
2023/01/28 09:12:04;;;;;;;;;;;3.10;99.90;;;;;;5055734;28;20078;-83
2023/01/28 09:14:31;;;;;;;;;;;3.10;99.90;;;;;;5059773;28;20017;-83
2023/01/28 09:16:58;;;;;;;;;;;3.10;99.90;;;;;;5063442;28;20540;-83
2023/01/28 09:19:25;;;;;;;;;;;3.10;99.90;;;;;;5061792;28;19929;-84
2023/01/28 09:21:51;;;;;;;;;;;3.10;99.90;;;;;;5043980;28;19926;-86
2023/01/28 09:24:21;;;;;;;;;;;3.10;99.90;;;;;;5064237;28;19940;-85
2023/01/28 09:26:48;;;;;;;;;;;3.20;99.90;;;;;;5065480;28;19933;-85
2023/01/28 09:29:15;;;;;;;;;;;3.20;99.90;;;;;;5060413;28;19978;-85
2023/01/28 09:31:42;;;;;;;;;;;3.10;99.90;;;;;;5063133;28;19959;-85
2023/01/28 09:34:09;;;;;;;;;;;3.20;99.90;;;;;;5062005;28;19932;-85
2023/01/28 09:36:36;;;;;;;;;;;3.60;99.90;;;;;;5046434;28;19929;-85
2023/01/28 09:39:04;;;;;;;;;;;3.50;99.90;;;;;;5038415;28;19939;-85
2023/01/28 09:41:36;;;;;;;;;;;3.40;99.90;;;;;;5046565;28;19936;-85
2023/01/28 09:44:05;;;;;;;;;;;3.40;99.90;;;;;;5044752;28;20226;-82
2023/01/28 09:46:33;;;;;;;;;;;3.50;99.90;;;;;;5063092;28;19935;-86
2023/01/28 09:49:02;;;;;;;;;;;3.60;99.90;;;;;;5047991;28;19943;-86
2023/01/28 09:51:32;;;;;;;;;;;3.50;99.90;;;;;;5062770;28;20051;-86
2023/01/28 09:54:00;;;;;;;;;;;2.70;99.90;;;;;;5061994;28;19932;-84
2023/01/28 09:56:30;;;;;;;;;;;3.50;99.90;;;;;;5061828;28;19929;-85
2023/01/28 09:58:59;;;;;;;;;;;3.50;99.90;;;;;;5059591;28;19929;-85
2023/01/28 10:01:36;;;;;;;;;;;3.50;99.90;;;;;;5047730;28;19932;-84
2023/01/28 10:04:05;;;;;;;;;;;3.50;99.90;;;;;;5060941;28;19928;-85
2023/01/28 10:06:42;;;;;;;;;;;3.70;99.90;;;;;;5043231;28;19925;-85
2023/01/28 10:09:18;;;;;;;;;;;3.50;99.90;;;;;;5070241;28;19939;-84
2023/01/28 10:11:50;;;;;;;;;;;3.80;99.90;;;;;;5060330;28;20006;-85
2023/01/28 10:14:23;;;;;;;;;;;3.80;99.90;;;;;;5061535;28;19928;-84
2023/01/28 10:16:51;;;;;;;;;;;3.80;99.90;;;;;;5063286;28;19929;-83
2023/01/28 10:19:22;;;;;;;;;;;3.70;99.90;;;;;;5073403;28;19980;-83
2023/01/28 10:21:50;;;;;;;;;;;3.70;99.90;;;;;;5067211;28;19928;-83
2023/01/28 10:24:18;;;;;;;;;;;3.70;99.90;;;;;;5074012;28;19924;-82
2023/01/28 10:26:45;;;;;;;;;;;3.70;99.90;;;;;;5050069;28;19935;-83
2023/01/28 10:29:13;;;;;;;;;;;3.80;99.90;;;;;;5067597;28;19939;-83
2023/01/28 10:31:47;;;;;;;;;;;3.80;99.90;;;;;;5048237;28;20837;-82
2023/01/28 10:34:13;;;;;;;;;;;3.90;99.90;;;;;;5044926;28;19929;-82
2023/01/28 10:36:40;;;;;;;;;;;4.10;99.90;;;;;;5046689;28;19928;-83
2023/01/28 10:39:07;;;;;;;;;;;4.90;99.90;;;;;;5049719;28;19928;-83
2023/01/28 10:41:34;;;;;;;;;;;4.30;99.90;;;;;;5044663;28;20349;-83
2023/01/28 10:44:01;;;;;;;;;;;4.30;99.90;;;;;;5044919;28;19925;-81
2023/01/28 10:46:29;;;;;;;;;;;4.30;99.90;;;;;;5060918;28;19931;-82
2023/01/28 10:49:02;;;;;;;;;;;4.50;99.90;;;;;;5060337;28;20382;-82
2023/01/28 10:51:33;;;;;;;;;;;4.70;99.90;;;;;;5058660;28;19933;-83
2023/01/28 10:53:59;;;;;;;;;;;4.70;99.90;;;;;;5055961;28;19933;-83
2023/01/28 10:56:28;;;;;;;;;;;4.80;99.90;;;;;;5038822;28;19928;-83
2023/01/28 10:58:58;;;;;;;;;;;4.90;99.90;;;;;;5054849;28;19963;-83
2023/01/28 11:01:26;;;;;;;;;;;4.80;99.90;;;;;;5035921;28;19943;-83
2023/01/28 11:03:53;;;;;;;;;;;4.80;99.90;;;;;;5038169;28;19929;-83
2023/01/28 11:06:29;;;;;;;;;;;4.70;99.90;;;;;;5050795;28;19929;-83
2023/01/28 11:08:56;;;;;;;;;;;4.70;99.90;;;;;;5036544;28;20281;-83
2023/01/28 11:11:25;;;;;;;;;;;4.40;99.90;;;;;;5054860;28;19925;-83
2023/01/28 11:13:53;;;;;;;;;;;4.50;99.90;;;;;;5045533;28;19970;-83
2023/01/28 11:16:20;;;;;;;;;;;4.40;99.90;;;;;;5085772;28;20277;-83
2023/01/28 11:18:50;;;;;;;;;;;4.20;99.90;;;;;;5078065;28;19925;-83
2023/01/28 11:21:19;;;;;;;;;;;3.90;99.90;;;;;;5070136;28;19928;-83
2023/01/28 11:23:50;;;;;;;;;;;3.90;99.90;;;;;;5080122;28;19924;-83
2023/01/28 11:26:19;;;;;;;;;;;3.90;99.90;;;;;;5072897;28;20011;-83
2023/01/28 11:28:46;;;;;;;;;;;3.90;99.90;;;;;;5069152;28;19950;-83
2023/01/28 11:31:14;;;;;;;;;;;3.90;99.90;;;;;;5056455;28;19935;-83
2023/01/28 11:33:44;;;;;;;;;;;3.90;99.90;;;;;;5074850;28;19924;-83
2023/01/28 11:36:14;;;;;;;;;;;3.90;99.90;;;;;;5058000;28;20014;-83
2023/01/28 11:38:49;;;;;;;;;;;3.80;99.90;;;;;;5074842;28;19928;-84
2023/01/28 11:41:16;;;;;;;;;;;3.70;99.90;;;;;;5071367;28;19929;-83
2023/01/28 11:43:45;;;;;;;;;;;3.70;99.90;;;;;;5074518;28;19932;-83
2023/01/28 11:46:21;;;;;;;;;;;3.90;99.90;;;;;;5057777;28;20015;-83
2023/01/28 11:48:52;;;;;;;;;;;4.10;99.90;;;;;;5059095;28;19935;-81
2023/01/28 11:51:23;;;;;;;;;;;4.20;99.90;;;;;;5077060;28;19924;-82
2023/01/28 11:54:00;;;;;;;;;;;4.30;99.90;;;;;;5080034;28;19966;-82
2023/01/28 11:56:50;;;;;;;;;;;4.10;99.90;;;;;;5085189;28;20032;-82
2023/01/28 11:59:35;;;;;;;;;;;4.10;99.90;;;;;;5050583;28;19928;-82
2023/01/28 12:02:04;;;;;;;;;;;4.10;99.90;;;;;;5062997;28;19940;-82
2023/01/28 12:04:46;;;;;;;;;;;4.00;99.90;;;;;;5075628;28;19921;-81
2023/01/28 12:07:18;;;;;;;;;;;3.90;99.90;;;;;;5078909;28;19933;-83
2023/01/28 12:09:51;;;;;;;;;;;4.00;99.90;;;;;;5068032;28;19998;-83
2023/01/28 12:12:29;;;;;;;;;;;4.00;99.90;;;;;;5080979;28;19929;-83
2023/01/28 12:15:07;;;;;;;;;;;4.00;99.90;;;;;;5081632;28;19929;-83
2023/01/28 12:17:39;;;;;;;;;;;4.30;99.90;;;;;;5062074;28;19939;-83
2023/01/28 12:20:12;;;;;;;;;;;4.40;99.90;;;;;;5079209;28;19928;-83
2023/01/28 12:22:57;;;;;;;;;;;4.60;99.90;;;;;;5086263;28;19939;-83
2023/01/28 12:25:33;;;;;;;;;;;4.60;99.90;;;;;;5069477;28;19947;-82
2023/01/28 12:28:03;;;;;;;;;;;4.70;99.90;;;;;;5083879;28;19925;-81
2023/01/28 12:30:37;;;;;;;;;;;4.60;99.90;;;;;;5087328;28;19912;-82
2023/01/28 12:33:11;;;;;;;;;;;4.60;99.90;;;;;;5083335;28;20309;-82
2023/01/28 12:35:50;;;;;;;;;;;4.70;99.90;;;;;;5066823;28;19935;-81
2023/01/28 12:38:21;;;;;;;;;;;4.70;99.90;;;;;;5081590;28;19931;-82
2023/01/28 12:40:57;;;;;;;;;;;4.90;99.90;;;;;;5085849;28;19912;-82
2023/01/28 12:43:26;;;;;;;;;;;5.10;99.90;;;;;;5085707;28;19928;-82
2023/01/28 12:45:55;;;;;;;;;;;5.30;99.90;;;;;;5073897;28;19932;-83
2023/01/28 12:48:24;;;;;;;;;;;5.50;99.90;;;;;;5066196;28;20073;-82
2023/01/28 12:50:53;;;;;;;;;;;5.70;99.90;;;;;;5068976;28;19981;-83
2023/01/28 12:53:23;;;;;;;;;;;5.70;99.90;;;;;;5074967;28;19928;-83
2023/01/28 12:55:53;;;;;;;;;;;5.60;99.90;;;;;;5074657;28;19959;-83
2023/01/28 12:58:24;;;;;;;;;;;5.40;99.90;;;;;;5055083;28;19932;-82
2023/01/28 13:00:52;;;;;;;;;;;6.20;99.90;;;;;;5057507;28;20002;-82
2023/01/28 13:03:21;;;;;;;;;;;4.90;99.90;;;;;;5056425;28;19928;-83
2023/01/28 13:05:50;;;;;;;;;;;4.80;99.90;;;;;;5073284;28;19929;-83
2023/01/28 13:08:19;;;;;;;;;;;4.90;99.90;;;;;;5047761;28;19924;-83
2023/01/28 13:10:46;;;;;;;;;;;4.80;99.90;;;;;;5079135;28;19935;-83
2023/01/28 13:13:16;;;;;;;;;;;4.90;99.90;;;;;;5075427;28;19928;-83
2023/01/28 13:15:46;;;;;;;;;;;4.80;99.90;;;;;;5056715;28;19924;-83
2023/01/28 13:18:29;;;;;;;;;;;4.90;99.90;;;;;;5070747;28;19924;-83
2023/01/28 13:20:56;;;;;;;;;;;4.80;99.90;;;;;;5069533;28;19928;-83
2023/01/28 13:23:24;;;;;;;;;;;4.90;99.90;;;;;;5074027;28;19929;-83
2023/01/28 13:25:52;;;;;;;;;;;4.90;99.90;;;;;;5054098;28;20398;-82
2023/01/28 13:28:26;;;;;;;;;;;5.00;99.90;;;;;;5073044;28;19993;-81
2023/01/28 13:31:01;;;;;;;;;;;5.10;99.90;;;;;;5077276;28;20441;-81
2023/01/28 13:33:29;;;;;;;;;;;5.20;99.90;;;;;;5088615;28;19931;-83
2023/01/28 13:35:56;;;;;;;;;;;5.50;99.90;;;;;;5085157;28;19939;-82
2023/01/28 13:38:24;;;;;;;;;;;5.70;99.90;;;;;;5083417;28;20014;-81
2023/01/28 13:40:54;;;;;;;;;;;5.90;99.90;;;;;;5079413;28;19951;-83
2023/01/28 13:43:26;;;;;;;;;;;5.90;99.90;;;;;;5083065;28;19929;-83
2023/01/28 13:46:00;;;;;;;;;;;5.80;99.90;;;;;;5057929;28;19932;-81
2023/01/28 13:48:31;;;;;;;;;;;5.80;99.90;;;;;;5082713;28;20028;-82
2023/01/28 13:50:58;;;;;;;;;;;6.00;99.90;;;;;;5077788;28;20058;-82
2023/01/28 13:53:29;;;;;;;;;;;6.00;99.90;;;;;;5076935;28;19928;-83
2023/01/28 13:55:58;;;;;;;;;;;6.10;99.90;;;;;;5077004;28;19947;-83
2023/01/28 13:58:45;;;;;;;;;;;6.30;99.90;;;;;;5068803;28;19936;-83
2023/01/28 14:01:36;;;;;;;;;;;6.50;99.90;;;;;;5070029;28;19932;-83
2023/01/28 14:04:25;;;;;;;;;;;6.70;99.90;;;;;;5073213;28;19936;-82
2023/01/28 14:07:01;;;;;;;;;;;6.80;99.90;;;;;;5052994;28;19928;-82
2023/01/28 14:09:36;;;;;;;;;;;6.90;99.90;;;;;;5054644;28;19955;-82
2023/01/28 14:12:18;;;;;;;;;;;6.90;99.90;;;;;;5048846;28;19928;-83
2023/01/28 14:14:53;;;;;;;;;;;6.80;99.90;;;;;;5071109;28;19928;-82
2023/01/28 14:17:27;;;;;;;;;;;6.50;99.90;;;;;;5050033;28;20450;-82
2023/01/28 14:19:55;;;;;;;;;;;6.20;99.90;;;;;;5072009;28;20038;-82
2023/01/28 14:22:22;;;;;;;;;;;6.00;99.90;;;;;;5053120;28;20406;-82
2023/01/28 14:24:48;;;;;;;;;;;5.90;99.90;;;;;;5053765;28;19970;-82
2023/01/28 14:27:17;;;;;;;;;;;5.60;99.90;;;;;;5071740;28;20396;-81
2023/01/28 14:29:49;;;;;;;;;;;5.40;99.90;;;;;;5079470;28;19928;-80
2023/01/28 14:32:16;;;;;;;;;;;5.40;99.90;;;;;;5069310;28;19975;-81
2023/01/28 14:34:46;;;;;;;;;;;5.40;99.90;;;;;;5079401;28;20004;-81
2023/01/28 14:37:13;;;;;;;;;;;5.30;99.90;;;;;;5049290;28;20302;-81
2023/01/28 14:39:43;;;;;;;;;;;5.50;99.90;;;;;;5072667;28;19962;-81
2023/01/28 14:42:13;;;;;;;;;;;5.00;99.90;;;;;;5057476;28;19928;-81
2023/01/28 14:44:40;;;;;;;;;;;4.80;99.90;;;;;;5066104;28;19939;-81
2023/01/28 14:47:18;;;;;;;;;;;4.70;99.90;;;;;;5073412;28;19929;-81
2023/01/28 14:49:51;;;;;;;;;;;4.60;99.90;;;;;;5072246;28;19943;-81
2023/01/28 14:52:29;;;;;;;;;;;4.60;99.90;;;;;;5072461;28;19925;-81
2023/01/28 14:55:05;;;;;;;;;;;4.50;99.90;;;;;;5073740;28;20334;-81
2023/01/28 14:57:38;;;;;;;;;;;4.50;99.90;;;;;;5070069;28;19929;-81
2023/01/28 15:00:16;;;;;;;;;;;4.50;99.90;;;;;;5066856;28;20741;-82
2023/01/28 15:02:43;;;;;;;;;;;4.40;99.90;;;;;;5075917;28;19931;-82
2023/01/28 15:05:15;;;;;;;;;;;4.40;99.90;;;;;;5054759;28;19928;-81
2023/01/28 15:07:44;;;;;;;;;;;4.30;99.90;;;;;;5070634;28;20390;-81
2023/01/28 15:10:14;;;;;;;;;;;4.20;99.90;;;;;;5049533;28;19924;-82
2023/01/28 15:12:46;;;;;;;;;;;4.10;99.90;;;;;;5067737;28;19931;-82
2023/01/28 15:15:17;;;;;;;;;;;4.00;99.90;;;;;;5072471;28;19959;-82
2023/01/28 15:17:44;;;;;;;;;;;4.00;99.90;;;;;;5054335;28;20031;-81
2023/01/28 15:20:16;;;;;;;;;;;3.90;99.90;;;;;;5055348;28;19978;-81